This is the latest recevied weather packets stored in our database for station/object KD0RII. If no packets are shown the sender has not sent any weather packets the latest 10 day(s).
| Time | Temp. | Humidity | Pressure | Rain* | Wind** | Luminosity | Snow |
|---|---|---|---|---|---|---|---|
| 1778090078 | 15° C | 43% | 1020.8 hPa | 0 mm | - | 455 W/m² | - |
| 1778089774 | 15° C | 42% | 1021.1 hPa | 0 mm | - | 393 W/m² | - |
| 1778089472 | 15° C | 43% | 1021 hPa | 0 mm | - | 406 W/m² | - |
| 1778089163 | 15° C | 42% | 1021 hPa | 0 mm | - | 415 W/m² | - |
| 1778088861 | 14.44° C | 45% | 1020.9 hPa | 0 mm | - | 388 W/m² | - |
| 1778088557 | 15° C | 44% | 1021.2 hPa | 0 mm | - | 431 W/m² | - |
| 1778088254 | 15° C | 42% | 1021.4 hPa | 0 mm | - | 402 W/m² | - |
| 1778087951 | 15° C | 44% | 1021.3 hPa | 0 mm | - | 522 W/m² | - |
| 1778087648 | 14.44° C | 48% | 1021 hPa | 0 mm | - | 468 W/m² | - |
| 1778087346 | 13.89° C | 46% | 1021.5 hPa | 0 mm | - | 519 W/m² | - |
| 1778087041 | 13.89° C | 45% | 1021.4 hPa | 0 mm | - | 364 W/m² | - |
| 1778086735 | 13.33° C | 45% | 1021.2 hPa | 0 mm | - | 320 W/m² | - |
| 1778086433 | 13.89° C | 46% | 1021.4 hPa | 0 mm | - | 303 W/m² | - |
| 1778086129 | 13.33° C | 47% | 1021.5 hPa | 0 mm | - | 305 W/m² | - |
| 1778085825 | 13.89° C | 46% | 1021.4 hPa | 0 mm | - | 299 W/m² | - |
| 1778085523 | 14.44° C | 46% | 1021.3 hPa | 0 mm | - | 300 W/m² | - |
| 1778085218 | 15° C | 44% | 1021.4 hPa | 0 mm | - | 373 W/m² | - |
| 1778084913 | 15° C | 48% | 1021.1 hPa | 0 mm | - | 443 W/m² | - |
| 1778084611 | 14.44° C | 49% | 1021.2 hPa | 0 mm | - | 506 W/m² | - |
| 1778084309 | 14.44° C | 48% | 1021.3 hPa | 0 mm | - | 526 W/m² | - |
| 1778084006 | 13.89° C | 49% | 1021 hPa | 0 mm | - | 477 W/m² | - |
| 1778083699 | 13.33° C | 54% | 1021.2 hPa | 0 mm | - | 462 W/m² | - |
| 1778083394 | 12.78° C | 55% | 1021 hPa | 0 mm | - | 429 W/m² | - |
| 1778083094 | 13.33° C | 53% | 1021.1 hPa | 0 mm | - | 343 W/m² | - |
| 1778082789 | 13.89° C | 51% | 1021 hPa | 0 mm | - | 322 W/m² | - |
* Rain latest hour (hover to see other rain measurements)
** Current wind speed in m/s (hover to see current wind gust speed)